sensor_id;sensor_type;location;lat;lon;timestamp;P1;durP1;ratioP1;P2;durP2;ratioP2
64653;SDS011;51065;48.884;12.598;2023-07-30T00:00:45;4.40;;;1.80;;
64653;SDS011;51065;48.884;12.598;2023-07-30T00:03:13;3.38;;;1.77;;
64653;SDS011;51065;48.884;12.598;2023-07-30T00:05:38;4.20;;;2.03;;
64653;SDS011;51065;48.884;12.598;2023-07-30T00:08:04;4.38;;;1.67;;
64653;SDS011;51065;48.884;12.598;2023-07-30T00:10:29;3.65;;;2.10;;
64653;SDS011;51065;48.884;12.598;2023-07-30T00:12:55;5.07;;;2.08;;
64653;SDS011;51065;48.884;12.598;2023-07-30T00:15:21;4.72;;;2.10;;
64653;SDS011;51065;48.884;12.598;2023-07-30T00:17:47;4.00;;;2.08;;
64653;SDS011;51065;48.884;12.598;2023-07-30T00:20:12;4.22;;;2.05;;
64653;SDS011;51065;48.884;12.598;2023-07-30T00:22:38;4.18;;;1.77;;
64653;SDS011;51065;48.884;12.598;2023-07-30T00:25:03;5.63;;;2.28;;
64653;SDS011;51065;48.884;12.598;2023-07-30T00:27:29;3.63;;;2.08;;
64653;SDS011;51065;48.884;12.598;2023-07-30T00:29:55;5.18;;;2.28;;
64653;SDS011;51065;48.884;12.598;2023-07-30T00:32:21;4.00;;;2.10;;
64653;SDS011;51065;48.884;12.598;2023-07-30T00:34:46;2.90;;;1.80;;
64653;SDS011;51065;48.884;12.598;2023-07-30T00:37:12;5.13;;;1.65;;
64653;SDS011;51065;48.884;12.598;2023-07-30T00:39:37;3.28;;;1.95;;
64653;SDS011;51065;48.884;12.598;2023-07-30T00:42:03;5.43;;;3.30;;
64653;SDS011;51065;48.884;12.598;2023-07-30T00:44:29;5.18;;;2.13;;
64653;SDS011;51065;48.884;12.598;2023-07-30T00:46:54;5.05;;;2.38;;
64653;SDS011;51065;48.884;12.598;2023-07-30T00:49:20;3.15;;;2.17;;
64653;SDS011;51065;48.884;12.598;2023-07-30T00:51:46;5.10;;;2.17;;
64653;SDS011;51065;48.884;12.598;2023-07-30T00:54:11;3.83;;;2.45;;
64653;SDS011;51065;48.884;12.598;2023-07-30T00:56:37;5.97;;;2.38;;
64653;SDS011;51065;48.884;12.598;2023-07-30T00:59:07;6.23;;;2.83;;
64653;SDS011;51065;48.884;12.598;2023-07-30T01:01:33;4.05;;;2.20;;
64653;SDS011;51065;48.884;12.598;2023-07-30T01:04:00;4.40;;;2.10;;
64653;SDS011;51065;48.884;12.598;2023-07-30T01:06:26;4.20;;;2.35;;
64653;SDS011;51065;48.884;12.598;2023-07-30T01:08:52;5.25;;;2.05;;
64653;SDS011;51065;48.884;12.598;2023-07-30T01:11:18;2.58;;;1.70;;
64653;SDS011;51065;48.884;12.598;2023-07-30T01:13:44;2.22;;;1.60;;
64653;SDS011;51065;48.884;12.598;2023-07-30T01:16:10;3.55;;;1.88;;
64653;SDS011;51065;48.884;12.598;2023-07-30T01:18:36;4.93;;;2.40;;
64653;SDS011;51065;48.884;12.598;2023-07-30T01:21:02;6.55;;;2.40;;
64653;SDS011;51065;48.884;12.598;2023-07-30T01:23:27;3.67;;;1.92;;
64653;SDS011;51065;48.884;12.598;2023-07-30T01:25:56;5.53;;;2.47;;
64653;SDS011;51065;48.884;12.598;2023-07-30T01:28:27;6.63;;;2.20;;
64653;SDS011;51065;48.884;12.598;2023-07-30T01:30:57;4.13;;;2.08;;
64653;SDS011;51065;48.884;12.598;2023-07-30T01:33:25;4.93;;;2.17;;
64653;SDS011;51065;48.884;12.598;2023-07-30T01:35:51;3.67;;;2.10;;
64653;SDS011;51065;48.884;12.598;2023-07-30T01:38:20;3.70;;;2.22;;
64653;SDS011;51065;48.884;12.598;2023-07-30T01:40:46;4.28;;;2.20;;
64653;SDS011;51065;48.884;12.598;2023-07-30T01:43:12;2.88;;;1.95;;
64653;SDS011;51065;48.884;12.598;2023-07-30T01:45:37;5.20;;;2.30;;
64653;SDS011;51065;48.884;12.598;2023-07-30T01:48:04;3.40;;;1.90;;
64653;SDS011;51065;48.884;12.598;2023-07-30T01:50:30;3.58;;;1.98;;
64653;SDS011;51065;48.884;12.598;2023-07-30T01:52:56;3.33;;;1.95;;
64653;SDS011;51065;48.884;12.598;2023-07-30T01:55:21;3.92;;;1.85;;
64653;SDS011;51065;48.884;12.598;2023-07-30T01:57:47;5.53;;;2.30;;
64653;SDS011;51065;48.884;12.598;2023-07-30T02:00:12;6.65;;;2.53;;
64653;SDS011;51065;48.884;12.598;2023-07-30T02:02:38;4.82;;;2.45;;
64653;SDS011;51065;48.884;12.598;2023-07-30T02:05:04;3.83;;;2.28;;
64653;SDS011;51065;48.884;12.598;2023-07-30T02:07:29;3.78;;;2.28;;
64653;SDS011;51065;48.884;12.598;2023-07-30T02:09:55;3.95;;;2.58;;
64653;SDS011;51065;48.884;12.598;2023-07-30T02:12:21;5.38;;;2.50;;
64653;SDS011;51065;48.884;12.598;2023-07-30T02:14:47;7.07;;;2.80;;
64653;SDS011;51065;48.884;12.598;2023-07-30T02:17:13;6.47;;;2.22;;
64653;SDS011;51065;48.884;12.598;2023-07-30T02:19:39;10.30;;;3.20;;
64653;SDS011;51065;48.884;12.598;2023-07-30T02:22:05;6.43;;;2.53;;
64653;SDS011;51065;48.884;12.598;2023-07-30T02:24:30;6.70;;;2.50;;
64653;SDS011;51065;48.884;12.598;2023-07-30T02:26:56;5.43;;;2.65;;
64653;SDS011;51065;48.884;12.598;2023-07-30T02:29:21;5.07;;;2.35;;
64653;SDS011;51065;48.884;12.598;2023-07-30T02:31:47;4.82;;;2.47;;
64653;SDS011;51065;48.884;12.598;2023-07-30T02:34:13;5.35;;;2.15;;
64653;SDS011;51065;48.884;12.598;2023-07-30T02:36:38;5.95;;;2.45;;
64653;SDS011;51065;48.884;12.598;2023-07-30T02:39:04;4.30;;;1.90;;
64653;SDS011;51065;48.884;12.598;2023-07-30T02:41:29;4.35;;;2.58;;
64653;SDS011;51065;48.884;12.598;2023-07-30T02:43:55;4.53;;;2.05;;
64653;SDS011;51065;48.884;12.598;2023-07-30T02:46:20;3.85;;;2.17;;
64653;SDS011;51065;48.884;12.598;2023-07-30T02:48:46;6.78;;;2.25;;
64653;SDS011;51065;48.884;12.598;2023-07-30T02:51:12;4.38;;;2.10;;
64653;SDS011;51065;48.884;12.598;2023-07-30T02:53:37;4.80;;;2.13;;
64653;SDS011;51065;48.884;12.598;2023-07-30T02:56:03;5.75;;;2.30;;
64653;SDS011;51065;48.884;12.598;2023-07-30T02:58:28;4.45;;;1.98;;
64653;SDS011;51065;48.884;12.598;2023-07-30T03:00:54;3.53;;;2.10;;
64653;SDS011;51065;48.884;12.598;2023-07-30T03:03:20;4.63;;;2.40;;
64653;SDS011;51065;48.884;12.598;2023-07-30T03:05:45;3.88;;;2.25;;
64653;SDS011;51065;48.884;12.598;2023-07-30T03:08:11;4.25;;;2.13;;
64653;SDS011;51065;48.884;12.598;2023-07-30T03:10:36;3.75;;;2.35;;
64653;SDS011;51065;48.884;12.598;2023-07-30T03:13:02;5.68;;;2.55;;
64653;SDS011;51065;48.884;12.598;2023-07-30T03:15:27;3.83;;;2.20;;
64653;SDS011;51065;48.884;12.598;2023-07-30T03:17:53;5.82;;;2.53;;
64653;SDS011;51065;48.884;12.598;2023-07-30T03:20:18;4.75;;;2.22;;
64653;SDS011;51065;48.884;12.598;2023-07-30T03:22:44;7.93;;;2.17;;
64653;SDS011;51065;48.884;12.598;2023-07-30T03:25:10;5.97;;;2.65;;
64653;SDS011;51065;48.884;12.598;2023-07-30T03:27:35;5.40;;;2.60;;
64653;SDS011;51065;48.884;12.598;2023-07-30T03:30:01;4.90;;;2.70;;
64653;SDS011;51065;48.884;12.598;2023-07-30T03:32:26;5.40;;;2.45;;
64653;SDS011;51065;48.884;12.598;2023-07-30T03:34:52;5.82;;;2.42;;
64653;SDS011;51065;48.884;12.598;2023-07-30T03:37:18;3.17;;;1.88;;
64653;SDS011;51065;48.884;12.598;2023-07-30T03:39:43;5.82;;;2.20;;
64653;SDS011;51065;48.884;12.598;2023-07-30T03:42:09;6.60;;;2.53;;
64653;SDS011;51065;48.884;12.598;2023-07-30T03:44:35;5.32;;;2.35;;
64653;SDS011;51065;48.884;12.598;2023-07-30T03:47:01;5.00;;;2.10;;
64653;SDS011;51065;48.884;12.598;2023-07-30T03:49:26;4.18;;;2.13;;
64653;SDS011;51065;48.884;12.598;2023-07-30T03:51:52;4.47;;;2.53;;
64653;SDS011;51065;48.884;12.598;2023-07-30T03:54:17;4.53;;;2.28;;
64653;SDS011;51065;48.884;12.598;2023-07-30T03:56:43;2.58;;;1.85;;
64653;SDS011;51065;48.884;12.598;2023-07-30T03:59:09;6.53;;;2.40;;
64653;SDS011;51065;48.884;12.598;2023-07-30T04:01:34;4.85;;;2.20;;
64653;SDS011;51065;48.884;12.598;2023-07-30T04:04:00;4.28;;;2.35;;
64653;SDS011;51065;48.884;12.598;2023-07-30T04:06:25;3.80;;;2.15;;
64653;SDS011;51065;48.884;12.598;2023-07-30T04:08:51;5.57;;;2.47;;
64653;SDS011;51065;48.884;12.598;2023-07-30T04:11:16;3.90;;;2.30;;
64653;SDS011;51065;48.884;12.598;2023-07-30T04:13:42;4.50;;;2.13;;
64653;SDS011;51065;48.884;12.598;2023-07-30T04:16:08;5.03;;;2.22;;
64653;SDS011;51065;48.884;12.598;2023-07-30T04:18:33;4.95;;;2.67;;
64653;SDS011;51065;48.884;12.598;2023-07-30T04:20:59;10.10;;;3.35;;
64653;SDS011;51065;48.884;12.598;2023-07-30T04:23:25;6.25;;;2.72;;
64653;SDS011;51065;48.884;12.598;2023-07-30T04:25:50;5.35;;;2.47;;
64653;SDS011;51065;48.884;12.598;2023-07-30T04:28:16;5.70;;;1.98;;
64653;SDS011;51065;48.884;12.598;2023-07-30T04:30:42;2.72;;;1.83;;
64653;SDS011;51065;48.884;12.598;2023-07-30T04:33:08;2.63;;;1.70;;
64653;SDS011;51065;48.884;12.598;2023-07-30T04:35:34;3.95;;;1.85;;
64653;SDS011;51065;48.884;12.598;2023-07-30T04:38:00;4.70;;;1.90;;
64653;SDS011;51065;48.884;12.598;2023-07-30T04:40:25;3.25;;;1.60;;
64653;SDS011;51065;48.884;12.598;2023-07-30T04:42:51;3.00;;;1.55;;
64653;SDS011;51065;48.884;12.598;2023-07-30T04:45:16;3.78;;;1.52;;
64653;SDS011;51065;48.884;12.598;2023-07-30T04:47:42;2.63;;;1.65;;
64653;SDS011;51065;48.884;12.598;2023-07-30T04:50:08;2.03;;;1.58;;
64653;SDS011;51065;48.884;12.598;2023-07-30T04:52:33;2.10;;;1.30;;
64653;SDS011;51065;48.884;12.598;2023-07-30T04:54:59;3.47;;;1.00;;
64653;SDS011;51065;48.884;12.598;2023-07-30T04:57:24;2.25;;;1.08;;
64653;SDS011;51065;48.884;12.598;2023-07-30T04:59:51;2.03;;;1.02;;
64653;SDS011;51065;48.884;12.598;2023-07-30T05:02:16;2.13;;;1.27;;
64653;SDS011;51065;48.884;12.598;2023-07-30T05:04:42;2.20;;;1.30;;
64653;SDS011;51065;48.884;12.598;2023-07-30T05:07:07;2.88;;;1.23;;
64653;SDS011;51065;48.884;12.598;2023-07-30T05:09:33;2.30;;;1.15;;
64653;SDS011;51065;48.884;12.598;2023-07-30T05:11:58;1.70;;;1.17;;
64653;SDS011;51065;48.884;12.598;2023-07-30T05:14:24;1.52;;;0.93;;
64653;SDS011;51065;48.884;12.598;2023-07-30T05:16:50;2.72;;;1.20;;
64653;SDS011;51065;48.884;12.598;2023-07-30T05:19:15;2.20;;;1.00;;
64653;SDS011;51065;48.884;12.598;2023-07-30T05:21:41;2.05;;;0.88;;
64653;SDS011;51065;48.884;12.598;2023-07-30T05:24:07;1.60;;;0.90;;
64653;SDS011;51065;48.884;12.598;2023-07-30T05:26:33;1.27;;;0.80;;
64653;SDS011;51065;48.884;12.598;2023-07-30T05:28:58;2.25;;;1.10;;
64653;SDS011;51065;48.884;12.598;2023-07-30T05:31:24;2.15;;;1.10;;
64653;SDS011;51065;48.884;12.598;2023-07-30T05:33:49;1.30;;;0.85;;
64653;SDS011;51065;48.884;12.598;2023-07-30T05:36:15;2.33;;;0.98;;
64653;SDS011;51065;48.884;12.598;2023-07-30T05:38:40;2.38;;;1.33;;
64653;SDS011;51065;48.884;12.598;2023-07-30T05:41:06;1.25;;;0.90;;
64653;SDS011;51065;48.884;12.598;2023-07-30T05:43:32;1.23;;;0.52;;
64653;SDS011;51065;48.884;12.598;2023-07-30T05:45:57;1.65;;;0.90;;
64653;SDS011;51065;48.884;12.598;2023-07-30T05:48:23;1.85;;;0.93;;
64653;SDS011;51065;48.884;12.598;2023-07-30T05:50:48;1.23;;;0.75;;
64653;SDS011;51065;48.884;12.598;2023-07-30T05:53:14;1.27;;;0.70;;
64653;SDS011;51065;48.884;12.598;2023-07-30T05:55:40;2.28;;;1.05;;
64653;SDS011;51065;48.884;12.598;2023-07-30T05:58:05;0.98;;;0.68;;
64653;SDS011;51065;48.884;12.598;2023-07-30T06:00:31;0.77;;;0.70;;
64653;SDS011;51065;48.884;12.598;2023-07-30T06:02:57;1.58;;;0.90;;
64653;SDS011;51065;48.884;12.598;2023-07-30T06:05:22;4.07;;;0.80;;
64653;SDS011;51065;48.884;12.598;2023-07-30T06:07:48;1.25;;;0.68;;
64653;SDS011;51065;48.884;12.598;2023-07-30T06:10:14;1.75;;;0.82;;
64653;SDS011;51065;48.884;12.598;2023-07-30T06:12:39;2.25;;;0.85;;
64653;SDS011;51065;48.884;12.598;2023-07-30T06:15:05;2.95;;;0.93;;
64653;SDS011;51065;48.884;12.598;2023-07-30T06:17:32;2.13;;;0.90;;
64653;SDS011;51065;48.884;12.598;2023-07-30T06:19:57;1.23;;;0.70;;
64653;SDS011;51065;48.884;12.598;2023-07-30T06:22:23;1.25;;;0.82;;
64653;SDS011;51065;48.884;12.598;2023-07-30T06:24:48;1.17;;;0.70;;
64653;SDS011;51065;48.884;12.598;2023-07-30T06:27:14;3.17;;;0.70;;
64653;SDS011;51065;48.884;12.598;2023-07-30T06:29:40;2.08;;;0.70;;
64653;SDS011;51065;48.884;12.598;2023-07-30T06:32:05;3.10;;;0.77;;
64653;SDS011;51065;48.884;12.598;2023-07-30T06:34:31;1.88;;;0.93;;
64653;SDS011;51065;48.884;12.598;2023-07-30T06:36:57;2.40;;;0.90;;
64653;SDS011;51065;48.884;12.598;2023-07-30T06:39:23;3.03;;;0.90;;
64653;SDS011;51065;48.884;12.598;2023-07-30T06:41:48;1.23;;;0.68;;
64653;SDS011;51065;48.884;12.598;2023-07-30T06:44:14;1.60;;;0.90;;
64653;SDS011;51065;48.884;12.598;2023-07-30T06:46:39;4.32;;;0.85;;
64653;SDS011;51065;48.884;12.598;2023-07-30T06:49:06;1.83;;;0.90;;
64653;SDS011;51065;48.884;12.598;2023-07-30T06:51:31;1.10;;;0.80;;
64653;SDS011;51065;48.884;12.598;2023-07-30T06:53:57;1.38;;;0.77;;
64653;SDS011;51065;48.884;12.598;2023-07-30T06:56:23;1.75;;;1.05;;
64653;SDS011;51065;48.884;12.598;2023-07-30T06:58:49;1.55;;;0.80;;
64653;SDS011;51065;48.884;12.598;2023-07-30T07:01:17;1.48;;;0.80;;
64653;SDS011;51065;48.884;12.598;2023-07-30T07:03:43;2.33;;;0.90;;
64653;SDS011;51065;48.884;12.598;2023-07-30T07:06:08;2.45;;;1.02;;
64653;SDS011;51065;48.884;12.598;2023-07-30T07:08:35;3.35;;;0.90;;
64653;SDS011;51065;48.884;12.598;2023-07-30T07:11:00;3.40;;;0.90;;
64653;SDS011;51065;48.884;12.598;2023-07-30T07:13:26;2.83;;;1.08;;
64653;SDS011;51065;48.884;12.598;2023-07-30T07:15:51;1.48;;;0.88;;
64653;SDS011;51065;48.884;12.598;2023-07-30T07:18:17;1.98;;;1.05;;
64653;SDS011;51065;48.884;12.598;2023-07-30T07:20:43;3.08;;;0.93;;
64653;SDS011;51065;48.884;12.598;2023-07-30T07:23:08;1.33;;;1.00;;
64653;SDS011;51065;48.884;12.598;2023-07-30T07:25:34;1.73;;;1.08;;
64653;SDS011;51065;48.884;12.598;2023-07-30T07:28:00;1.45;;;1.10;;
64653;SDS011;51065;48.884;12.598;2023-07-30T07:30:25;2.72;;;1.00;;
64653;SDS011;51065;48.884;12.598;2023-07-30T07:32:52;5.35;;;1.63;;
64653;SDS011;51065;48.884;12.598;2023-07-30T07:35:18;2.30;;;1.00;;
64653;SDS011;51065;48.884;12.598;2023-07-30T07:37:45;2.00;;;1.15;;
64653;SDS011;51065;48.884;12.598;2023-07-30T07:40:10;1.98;;;1.27;;
64653;SDS011;51065;48.884;12.598;2023-07-30T07:42:37;2.10;;;1.48;;
64653;SDS011;51065;48.884;12.598;2023-07-30T07:45:03;4.25;;;1.40;;
64653;SDS011;51065;48.884;12.598;2023-07-30T07:47:30;2.60;;;1.30;;
64653;SDS011;51065;48.884;12.598;2023-07-30T07:49:55;1.55;;;1.13;;
64653;SDS011;51065;48.884;12.598;2023-07-30T07:52:21;3.17;;;1.13;;
64653;SDS011;51065;48.884;12.598;2023-07-30T07:54:47;2.63;;;1.23;;
64653;SDS011;51065;48.884;12.598;2023-07-30T07:57:12;1.98;;;1.35;;
64653;SDS011;51065;48.884;12.598;2023-07-30T07:59:38;2.55;;;1.40;;
64653;SDS011;51065;48.884;12.598;2023-07-30T08:02:04;2.88;;;1.65;;
64653;SDS011;51065;48.884;12.598;2023-07-30T08:04:30;1.60;;;1.13;;
64653;SDS011;51065;48.884;12.598;2023-07-30T08:06:55;2.10;;;1.55;;
64653;SDS011;51065;48.884;12.598;2023-07-30T08:09:24;3.78;;;1.30;;
64653;SDS011;51065;48.884;12.598;2023-07-30T08:11:50;4.55;;;1.63;;
64653;SDS011;51065;48.884;12.598;2023-07-30T08:14:16;4.82;;;1.65;;
64653;SDS011;51065;48.884;12.598;2023-07-30T08:16:41;3.33;;;1.70;;
64653;SDS011;51065;48.884;12.598;2023-07-30T08:19:07;2.88;;;1.50;;
64653;SDS011;51065;48.884;12.598;2023-07-30T08:21:32;2.63;;;1.30;;
64653;SDS011;51065;48.884;12.598;2023-07-30T08:23:58;2.38;;;1.40;;
64653;SDS011;51065;48.884;12.598;2023-07-30T08:26:24;2.88;;;1.60;;
64653;SDS011;51065;48.884;12.598;2023-07-30T08:28:49;3.10;;;1.42;;
64653;SDS011;51065;48.884;12.598;2023-07-30T08:31:15;1.98;;;1.40;;
64653;SDS011;51065;48.884;12.598;2023-07-30T08:33:41;3.28;;;1.80;;
64653;SDS011;51065;48.884;12.598;2023-07-30T08:36:06;2.55;;;1.67;;
64653;SDS011;51065;48.884;12.598;2023-07-30T08:38:32;2.42;;;1.80;;
64653;SDS011;51065;48.884;12.598;2023-07-30T08:40:57;2.70;;;1.73;;
64653;SDS011;51065;48.884;12.598;2023-07-30T08:43:23;2.55;;;1.75;;
64653;SDS011;51065;48.884;12.598;2023-07-30T08:45:49;2.63;;;1.60;;
64653;SDS011;51065;48.884;12.598;2023-07-30T08:48:14;2.95;;;1.38;;
64653;SDS011;51065;48.884;12.598;2023-07-30T08:50:40;2.17;;;1.38;;
64653;SDS011;51065;48.884;12.598;2023-07-30T08:53:07;2.72;;;1.30;;
64653;SDS011;51065;48.884;12.598;2023-07-30T08:55:33;5.25;;;1.52;;
64653;SDS011;51065;48.884;12.598;2023-07-30T08:58:01;2.65;;;1.67;;
64653;SDS011;51065;48.884;12.598;2023-07-30T09:00:28;4.22;;;1.58;;
64653;SDS011;51065;48.884;12.598;2023-07-30T09:02:59;2.63;;;1.77;;
64653;SDS011;51065;48.884;12.598;2023-07-30T09:05:25;1.83;;;1.45;;
64653;SDS011;51065;48.884;12.598;2023-07-30T09:07:55;2.37;;;1.53;;
64653;SDS011;51065;48.884;12.598;2023-07-30T09:10:21;2.25;;;1.55;;
64653;SDS011;51065;48.884;12.598;2023-07-30T09:12:51;1.63;;;1.50;;
64653;SDS011;51065;48.884;12.598;2023-07-30T09:15:32;2.03;;;1.73;;
64653;SDS011;51065;48.884;12.598;2023-07-30T09:17:59;3.08;;;1.33;;
64653;SDS011;51065;48.884;12.598;2023-07-30T09:20:26;2.38;;;1.70;;
64653;SDS011;51065;48.884;12.598;2023-07-30T09:22:51;1.83;;;1.25;;
64653;SDS011;51065;48.884;12.598;2023-07-30T09:25:18;1.80;;;1.50;;
64653;SDS011;51065;48.884;12.598;2023-07-30T09:27:50;2.75;;;1.50;;
64653;SDS011;51065;48.884;12.598;2023-07-30T09:30:21;2.17;;;1.30;;
64653;SDS011;51065;48.884;12.598;2023-07-30T09:32:52;2.20;;;1.48;;
64653;SDS011;51065;48.884;12.598;2023-07-30T09:35:19;1.92;;;1.33;;
64653;SDS011;51065;48.884;12.598;2023-07-30T09:37:45;3.15;;;1.42;;
64653;SDS011;51065;48.884;12.598;2023-07-30T09:40:14;1.85;;;1.10;;
64653;SDS011;51065;48.884;12.598;2023-07-30T09:42:44;1.83;;;1.23;;
64653;SDS011;51065;48.884;12.598;2023-07-30T09:45:19;1.40;;;1.27;;
64653;SDS011;51065;48.884;12.598;2023-07-30T09:47:50;1.80;;;1.17;;
64653;SDS011;51065;48.884;12.598;2023-07-30T09:50:16;2.00;;;1.33;;
64653;SDS011;51065;48.884;12.598;2023-07-30T09:52:43;2.05;;;1.30;;
64653;SDS011;51065;48.884;12.598;2023-07-30T09:55:09;2.28;;;1.20;;
64653;SDS011;51065;48.884;12.598;2023-07-30T09:57:35;1.58;;;1.10;;
64653;SDS011;51065;48.884;12.598;2023-07-30T10:00:02;1.60;;;1.05;;
64653;SDS011;51065;48.884;12.598;2023-07-30T10:02:29;1.13;;;1.00;;
64653;SDS011;51065;48.884;12.598;2023-07-30T10:04:57;2.20;;;1.00;;
64653;SDS011;51065;48.884;12.598;2023-07-30T10:07:25;1.88;;;1.00;;
64653;SDS011;51065;48.884;12.598;2023-07-30T10:09:54;1.48;;;1.05;;
64653;SDS011;51065;48.884;12.598;2023-07-30T10:14:51;1.50;;;1.05;;
64653;SDS011;51065;48.884;12.598;2023-07-30T10:17:17;2.20;;;1.23;;
64653;SDS011;51065;48.884;12.598;2023-07-30T10:19:46;2.17;;;0.90;;
64653;SDS011;51065;48.884;12.598;2023-07-30T10:25:00;2.22;;;1.13;;
64653;SDS011;51065;48.884;12.598;2023-07-30T10:27:27;1.60;;;1.02;;
64653;SDS011;51065;48.884;12.598;2023-07-30T10:30:12;2.15;;;1.10;;
64653;SDS011;51065;48.884;12.598;2023-07-30T10:38:29;1.42;;;1.08;;
64653;SDS011;51065;48.884;12.598;2023-07-30T10:43:40;1.25;;;1.08;;
64653;SDS011;51065;48.884;12.598;2023-07-30T10:46:07;1.58;;;1.08;;
64653;SDS011;51065;48.884;12.598;2023-07-30T10:48:37;3.45;;;1.20;;
64653;SDS011;51065;48.884;12.598;2023-07-30T10:51:05;2.15;;;1.42;;
64653;SDS011;51065;48.884;12.598;2023-07-30T10:53:37;1.60;;;1.33;;
64653;SDS011;51065;48.884;12.598;2023-07-30T10:56:04;2.20;;;1.40;;
64653;SDS011;51065;48.884;12.598;2023-07-30T10:58:32;2.03;;;1.40;;
64653;SDS011;51065;48.884;12.598;2023-07-30T11:01:01;2.15;;;1.50;;
64653;SDS011;51065;48.884;12.598;2023-07-30T11:03:28;2.13;;;0.90;;
64653;SDS011;51065;48.884;12.598;2023-07-30T11:05:54;2.58;;;1.23;;
64653;SDS011;51065;48.884;12.598;2023-07-30T11:08:39;1.38;;;1.10;;
64653;SDS011;51065;48.884;12.598;2023-07-30T11:11:07;2.38;;;1.38;;
64653;SDS011;51065;48.884;12.598;2023-07-30T11:13:41;2.25;;;1.10;;
64653;SDS011;51065;48.884;12.598;2023-07-30T11:16:14;2.00;;;1.40;;
64653;SDS011;51065;48.884;12.598;2023-07-30T11:18:41;1.60;;;1.35;;
64653;SDS011;51065;48.884;12.598;2023-07-30T11:21:12;3.25;;;1.85;;
64653;SDS011;51065;48.884;12.598;2023-07-30T11:23:42;2.33;;;1.65;;
64653;SDS011;51065;48.884;12.598;2023-07-30T11:26:12;2.75;;;1.90;;
64653;SDS011;51065;48.884;12.598;2023-07-30T11:28:42;2.90;;;1.92;;
64653;SDS011;51065;48.884;12.598;2023-07-30T11:31:09;2.70;;;1.73;;
64653;SDS011;51065;48.884;12.598;2023-07-30T11:33:35;3.42;;;1.73;;
64653;SDS011;51065;48.884;12.598;2023-07-30T11:36:12;2.28;;;1.70;;
64653;SDS011;51065;48.884;12.598;2023-07-30T11:38:44;3.30;;;1.73;;
64653;SDS011;51065;48.884;12.598;2023-07-30T11:41:11;3.90;;;1.60;;
64653;SDS011;51065;48.884;12.598;2023-07-30T11:43:39;3.42;;;1.75;;
64653;SDS011;51065;48.884;12.598;2023-07-30T11:46:11;2.75;;;1.88;;
64653;SDS011;51065;48.884;12.598;2023-07-30T11:48:43;2.63;;;1.55;;
64653;SDS011;51065;48.884;12.598;2023-07-30T11:53:55;2.58;;;1.73;;
64653;SDS011;51065;48.884;12.598;2023-07-30T11:58:48;2.15;;;1.42;;
64653;SDS011;51065;48.884;12.598;2023-07-30T12:01:15;3.45;;;1.40;;
64653;SDS011;51065;48.884;12.598;2023-07-30T12:03:41;2.13;;;1.10;;
64653;SDS011;51065;48.884;12.598;2023-07-30T12:06:09;1.30;;;0.90;;
64653;SDS011;51065;48.884;12.598;2023-07-30T12:08:35;2.28;;;1.33;;
64653;SDS011;51065;48.884;12.598;2023-07-30T12:11:05;2.03;;;0.90;;
64653;SDS011;51065;48.884;12.598;2023-07-30T12:13:32;1.45;;;0.80;;
64653;SDS011;51065;48.884;12.598;2023-07-30T12:15:58;1.75;;;1.02;;
64653;SDS011;51065;48.884;12.598;2023-07-30T12:18:24;2.13;;;1.00;;
64653;SDS011;51065;48.884;12.598;2023-07-30T12:20:51;1.83;;;1.10;;
64653;SDS011;51065;48.884;12.598;2023-07-30T12:23:18;2.08;;;1.30;;
64653;SDS011;51065;48.884;12.598;2023-07-30T12:25:47;1.93;;;1.60;;
64653;SDS011;51065;48.884;12.598;2023-07-30T12:28:13;4.07;;;1.13;;
64653;SDS011;51065;48.884;12.598;2023-07-30T12:30:39;2.40;;;1.45;;
64653;SDS011;51065;48.884;12.598;2023-07-30T12:33:05;2.58;;;1.27;;
64653;SDS011;51065;48.884;12.598;2023-07-30T12:35:31;1.73;;;0.70;;
64653;SDS011;51065;48.884;12.598;2023-07-30T12:37:57;2.95;;;1.30;;
64653;SDS011;51065;48.884;12.598;2023-07-30T12:40:23;3.03;;;1.42;;
64653;SDS011;51065;48.884;12.598;2023-07-30T12:42:49;0.93;;;0.75;;
64653;SDS011;51065;48.884;12.598;2023-07-30T12:45:15;0.95;;;0.70;;
64653;SDS011;51065;48.884;12.598;2023-07-30T12:47:40;0.60;;;0.43;;
64653;SDS011;51065;48.884;12.598;2023-07-30T12:50:06;2.67;;;1.00;;
64653;SDS011;51065;48.884;12.598;2023-07-30T12:52:33;0.47;;;0.47;;
64653;SDS011;51065;48.884;12.598;2023-07-30T12:54:59;1.58;;;0.90;;
64653;SDS011;51065;48.884;12.598;2023-07-30T12:57:25;1.40;;;1.02;;
64653;SDS011;51065;48.884;12.598;2023-07-30T12:59:50;2.72;;;0.80;;
64653;SDS011;51065;48.884;12.598;2023-07-30T13:02:16;0.70;;;0.55;;
64653;SDS011;51065;48.884;12.598;2023-07-30T13:04:41;0.93;;;0.65;;
64653;SDS011;51065;48.884;12.598;2023-07-30T13:07:07;0.70;;;0.50;;
64653;SDS011;51065;48.884;12.598;2023-07-30T13:09:33;1.27;;;0.68;;
64653;SDS011;51065;48.884;12.598;2023-07-30T13:11:58;1.88;;;0.70;;
64653;SDS011;51065;48.884;12.598;2023-07-30T13:14:24;4.32;;;1.38;;
64653;SDS011;51065;48.884;12.598;2023-07-30T13:16:49;2.00;;;0.90;;
64653;SDS011;51065;48.884;12.598;2023-07-30T13:19:15;1.50;;;0.82;;
64653;SDS011;51065;48.884;12.598;2023-07-30T13:21:41;1.70;;;0.60;;
64653;SDS011;51065;48.884;12.598;2023-07-30T13:24:06;1.52;;;0.63;;
64653;SDS011;51065;48.884;12.598;2023-07-30T13:26:32;0.80;;;0.60;;
64653;SDS011;51065;48.884;12.598;2023-07-30T13:28:58;3.55;;;0.52;;
64653;SDS011;51065;48.884;12.598;2023-07-30T13:31:23;3.05;;;0.52;;
64653;SDS011;51065;48.884;12.598;2023-07-30T13:33:49;1.77;;;0.50;;
64653;SDS011;51065;48.884;12.598;2023-07-30T13:36:16;2.92;;;0.80;;
64653;SDS011;51065;48.884;12.598;2023-07-30T13:38:42;0.77;;;0.50;;
64653;SDS011;51065;48.884;12.598;2023-07-30T13:41:08;4.13;;;0.80;;
64653;SDS011;51065;48.884;12.598;2023-07-30T13:43:34;3.35;;;1.02;;
64653;SDS011;51065;48.884;12.598;2023-07-30T13:46:00;0.63;;;0.50;;
64653;SDS011;51065;48.884;12.598;2023-07-30T13:48:26;0.95;;;0.70;;
64653;SDS011;51065;48.884;12.598;2023-07-30T13:50:51;1.20;;;0.50;;
64653;SDS011;51065;48.884;12.598;2023-07-30T13:53:17;3.40;;;0.63;;
64653;SDS011;51065;48.884;12.598;2023-07-30T13:55:43;1.42;;;0.80;;
64653;SDS011;51065;48.884;12.598;2023-07-30T13:58:09;1.02;;;0.73;;
64653;SDS011;51065;48.884;12.598;2023-07-30T14:00:35;2.25;;;0.70;;
64653;SDS011;51065;48.884;12.598;2023-07-30T14:03:00;0.90;;;0.70;;
64653;SDS011;51065;48.884;12.598;2023-07-30T14:05:26;1.90;;;0.60;;
64653;SDS011;51065;48.884;12.598;2023-07-30T14:07:55;0.80;;;0.65;;
64653;SDS011;51065;48.884;12.598;2023-07-30T14:10:22;1.20;;;0.70;;
64653;SDS011;51065;48.884;12.598;2023-07-30T14:12:48;1.50;;;0.85;;
64653;SDS011;51065;48.884;12.598;2023-07-30T14:15:14;1.05;;;0.70;;
64653;SDS011;51065;48.884;12.598;2023-07-30T14:17:41;3.05;;;1.25;;
64653;SDS011;51065;48.884;12.598;2023-07-30T14:20:07;2.13;;;0.70;;
64653;SDS011;51065;48.884;12.598;2023-07-30T14:22:34;2.30;;;1.20;;
64653;SDS011;51065;48.884;12.598;2023-07-30T14:25:00;3.88;;;1.42;;
64653;SDS011;51065;48.884;12.598;2023-07-30T14:27:26;2.55;;;1.30;;
64653;SDS011;51065;48.884;12.598;2023-07-30T14:29:51;1.50;;;1.10;;
64653;SDS011;51065;48.884;12.598;2023-07-30T14:32:18;2.00;;;1.13;;
64653;SDS011;51065;48.884;12.598;2023-07-30T14:34:45;1.30;;;0.80;;
64653;SDS011;51065;48.884;12.598;2023-07-30T14:37:11;4.28;;;1.17;;
64653;SDS011;51065;48.884;12.598;2023-07-30T14:39:36;1.55;;;0.98;;
64653;SDS011;51065;48.884;12.598;2023-07-30T14:42:02;1.30;;;1.00;;
64653;SDS011;51065;48.884;12.598;2023-07-30T14:44:28;1.70;;;1.20;;
64653;SDS011;51065;48.884;12.598;2023-07-30T14:46:53;1.48;;;0.90;;